Time;durP1;ratioP1;P1;durP2;ratioP2;P2;SDS_P1;SDS_P2;PMS_P1;PMS_P2;Temp;Humidity;BMP_temperature;BMP_pressure;BME280_temperature;BME280_humidity;BME280_pressure;Samples;Min_cycle;Max_cycle;Signal;HPM_P1;HPM_P2
2022/07/08 00:00:53;;;;;;;8.03;3.80;;;20.30;71.10;;;;;;5021349;28;20419;-76
2022/07/08 00:03:18;;;;;;;8.63;3.47;;;20.30;71.40;;;;;;5013066;28;20185;-76
2022/07/08 00:05:45;;;;;;;4.70;3.33;;;20.20;71.10;;;;;;5015205;28;20320;-76
2022/07/08 00:08:10;;;;;;;6.57;4.27;;;20.10;71.60;;;;;;5016327;28;20208;-76
2022/07/08 00:10:36;;;;;;;9.30;4.00;;;20.10;71.70;;;;;;5016730;28;20439;-76
2022/07/08 00:13:02;;;;;;;6.43;3.77;;;20.10;71.30;;;;;;5018378;28;20172;-76
2022/07/08 00:15:29;;;;;;;6.20;3.50;;;20.10;71.40;;;;;;5000080;28;20208;-76
2022/07/08 00:17:55;;;;;;;8.83;4.07;;;20.00;71.40;;;;;;5019158;28;20447;-76
2022/07/08 00:20:22;;;;;;;7.90;3.60;;;20.00;71.50;;;;;;5018178;28;20437;-76
2022/07/08 00:22:47;;;;;;;8.97;4.27;;;19.90;71.60;;;;;;5016430;28;20243;-77
2022/07/08 00:25:13;;;;;;;9.97;4.27;;;19.90;72.20;;;;;;5016497;28;20966;-76
2022/07/08 00:27:38;;;;;;;7.13;4.43;;;19.90;71.90;;;;;;5014836;28;20192;-77
2022/07/08 00:30:05;;;;;;;6.20;3.50;;;19.90;72.30;;;;;;5017618;28;20208;-77
2022/07/08 00:32:30;;;;;;;6.67;4.30;;;19.90;72.40;;;;;;5016256;28;21218;-77
2022/07/08 00:34:56;;;;;;;7.30;3.63;;;19.90;72.40;;;;;;5017349;28;20427;-78
2022/07/08 00:37:21;;;;;;;5.90;3.87;;;19.80;72.70;;;;;;4995895;28;20230;-76
2022/07/08 00:39:47;;;;;;;7.33;4.13;;;19.80;72.90;;;;;;5014076;28;20602;-75
2022/07/08 00:42:13;;;;;;;6.50;3.70;;;19.80;72.90;;;;;;5014429;28;20223;-77
2022/07/08 00:44:38;;;;;;;5.70;4.10;;;19.80;72.70;;;;;;5011970;28;20204;-77
2022/07/08 00:47:04;;;;;;;7.30;3.90;;;19.70;72.90;;;;;;5014189;28;20208;-76
2022/07/08 00:49:30;;;;;;;9.00;4.50;;;19.70;73.00;;;;;;5016148;28;20181;-76
2022/07/08 00:51:56;;;;;;;10.90;4.30;;;19.60;72.90;;;;;;5018051;28;20785;-76
2022/07/08 00:54:22;;;;;;;12.30;4.93;;;19.50;73.20;;;;;;5013346;28;20199;-76
2022/07/08 00:56:48;;;;;;;8.33;4.67;;;19.50;73.40;;;;;;5015064;28;20456;-76
2022/07/08 00:59:14;;;;;;;10.97;4.93;;;19.50;73.30;;;;;;5012300;28;20184;-76
2022/07/08 01:01:40;;;;;;;7.03;4.07;;;19.50;73.20;;;;;;5014944;28;20470;-76
2022/07/08 01:04:06;;;;;;;8.00;4.80;;;19.50;73.40;;;;;;5004166;28;20478;-77
2022/07/08 01:06:32;;;;;;;5.40;3.90;;;19.40;73.60;;;;;;5017423;28;20207;-77
2022/07/08 01:08:58;;;;;;;5.27;4.20;;;19.40;73.70;;;;;;5017817;28;20188;-76
2022/07/08 01:11:25;;;;;;;10.47;4.30;;;19.50;73.60;;;;;;5002796;28;20436;-78
2022/07/08 01:13:52;;;;;;;6.83;4.40;;;19.40;73.90;;;;;;5016171;28;20419;-77
2022/07/08 01:16:17;;;;;;;6.00;4.40;;;19.40;74.60;;;;;;5019621;28;20510;-77
2022/07/08 01:18:43;;;;;;;6.50;4.20;;;19.40;73.80;;;;;;5018041;28;20462;-76
2022/07/08 01:21:09;;;;;;;6.27;4.50;;;19.30;74.00;;;;;;5011051;28;20203;-77
2022/07/08 01:23:35;;;;;;;6.13;3.63;;;19.30;74.70;;;;;;5015009;28;20181;-78
2022/07/08 01:26:12;;;;;;;9.40;4.20;;;19.20;75.80;;;;;;5015357;28;21032;-78
2022/07/08 01:28:39;;;;;;;4.73;3.80;;;19.20;74.90;;;;;;5014135;28;20224;-77
2022/07/08 01:31:05;;;;;;;6.00;4.27;;;19.10;74.90;;;;;;5014304;28;20432;-76
2022/07/08 01:33:31;;;;;;;11.13;4.73;;;19.10;75.20;;;;;;5013913;28;20525;-76
2022/07/08 01:35:56;;;;;;;9.13;3.90;;;19.10;75.10;;;;;;5014536;28;20239;-77
2022/07/08 01:38:22;;;;;;;5.60;3.90;;;19.10;75.40;;;;;;5011837;28;20435;-78
2022/07/08 01:40:48;;;;;;;9.37;4.03;;;19.00;75.60;;;;;;5013580;28;20235;-77
2022/07/08 01:43:14;;;;;;;12.47;4.97;;;19.00;76.20;;;;;;5020212;28;20215;-76
2022/07/08 01:45:39;;;;;;;9.20;3.90;;;19.00;76.00;;;;;;5017360;28;20216;-76
2022/07/08 01:48:05;;;;;;;6.60;3.70;;;19.00;76.10;;;;;;5016199;28;20513;-77
2022/07/08 01:50:31;;;;;;;9.00;3.80;;;18.90;75.70;;;;;;5013263;28;20181;-76
2022/07/08 01:52:57;;;;;;;6.73;3.80;;;18.90;75.80;;;;;;5017850;28;20200;-75
2022/07/08 01:55:23;;;;;;;8.67;4.17;;;18.90;75.60;;;;;;5012507;28;20602;-77
2022/07/08 01:57:48;;;;;;;8.03;4.00;;;18.90;75.50;;;;;;5002421;28;20509;-76
2022/07/08 02:00:14;;;;;;;8.40;3.83;;;18.90;75.50;;;;;;5011595;28;20431;-77
2022/07/08 02:02:40;;;;;;;6.60;3.40;;;18.90;75.50;;;;;;5012598;28;20284;-78
2022/07/08 02:05:06;;;;;;;6.23;4.13;;;18.80;76.10;;;;;;5017192;28;20212;-78
2022/07/08 02:07:33;;;;;;;7.23;3.70;;;18.80;76.10;;;;;;5013119;28;20200;-75
2022/07/08 02:09:59;;;;;;;5.30;3.40;;;18.90;75.50;;;;;;5013342;28;20550;-75
2022/07/08 02:12:25;;;;;;;8.90;4.30;;;18.90;75.30;;;;;;5014537;28;20553;-76
2022/07/08 02:14:52;;;;;;;10.67;3.50;;;18.80;74.90;;;;;;5012765;28;20188;-76
2022/07/08 02:17:20;;;;;;;8.60;4.00;;;18.80;75.20;;;;;;5012737;28;20200;-76
2022/07/08 02:19:46;;;;;;;6.20;3.50;;;18.80;75.20;;;;;;5012302;28;20438;-77
2022/07/08 02:22:11;;;;;;;4.53;3.33;;;18.70;75.50;;;;;;5018736;28;20441;-77
2022/07/08 02:24:37;;;;;;;10.50;3.63;;;18.70;75.50;;;;;;5021380;28;20459;-76
2022/07/08 02:27:04;;;;;;;8.53;4.00;;;18.60;76.10;;;;;;5020517;28;20209;-76
2022/07/08 02:29:30;;;;;;;7.33;4.50;;;18.60;75.80;;;;;;5004674;28;20427;-78
2022/07/08 02:31:56;;;;;;;5.90;3.63;;;18.60;75.90;;;;;;5004496;28;20485;-76
2022/07/08 02:34:22;;;;;;;6.03;4.27;;;18.60;76.20;;;;;;5016231;28;20442;-77
2022/07/08 02:36:47;;;;;;;4.93;3.90;;;18.50;76.50;;;;;;5013494;28;20464;-78
2022/07/08 02:39:13;;;;;;;6.70;4.43;;;18.50;76.60;;;;;;5014187;28;20262;-78
2022/07/08 02:41:40;;;;;;;4.83;3.57;;;18.50;76.60;;;;;;5018282;28;20196;-76
2022/07/08 02:44:06;;;;;;;5.30;3.70;;;18.50;77.70;;;;;;5019120;28;20777;-77
2022/07/08 02:46:32;;;;;;;7.23;4.10;;;18.40;76.70;;;;;;5013352;28;21053;-77
2022/07/08 02:48:58;;;;;;;6.30;4.00;;;18.40;77.20;;;;;;5018173;28;20439;-78
2022/07/08 02:51:23;;;;;;;9.73;4.13;;;18.40;77.20;;;;;;5019068;28;20480;-77
2022/07/08 02:53:49;;;;;;;8.70;3.80;;;18.40;77.60;;;;;;5027124;28;20291;-76
2022/07/08 02:56:15;;;;;;;9.17;4.80;;;18.40;77.10;;;;;;5021953;28;20201;-77
2022/07/08 02:58:40;;;;;;;6.50;4.00;;;18.40;77.30;;;;;;5021819;28;20660;-76
2022/07/08 03:01:06;;;;;;;7.13;3.87;;;18.30;78.20;;;;;;5000965;28;20577;-77
2022/07/08 03:03:31;;;;;;;8.20;4.20;;;18.20;78.20;;;;;;5024598;28;20189;-76
2022/07/08 03:05:57;;;;;;;4.10;3.63;;;18.20;78.60;;;;;;5020607;28;20277;-78
2022/07/08 03:08:22;;;;;;;12.67;3.93;;;18.20;78.20;;;;;;5023687;28;20181;-78
2022/07/08 03:10:49;;;;;;;7.20;4.00;;;18.20;77.90;;;;;;5020677;28;20330;-77
2022/07/08 03:13:15;;;;;;;9.23;3.87;;;18.20;78.30;;;;;;5013944;28;20254;-78
2022/07/08 03:15:40;;;;;;;7.43;4.10;;;18.20;78.50;;;;;;5018375;28;20597;-77
2022/07/08 03:18:06;;;;;;;5.77;3.93;;;18.20;78.20;;;;;;5014499;28;20444;-76
2022/07/08 03:20:32;;;;;;;7.33;4.00;;;18.20;78.10;;;;;;5014857;28;20181;-76
2022/07/08 03:22:58;;;;;;;7.53;4.43;;;18.20;78.30;;;;;;5018854;28;20213;-77
2022/07/08 03:25:24;;;;;;;9.10;3.80;;;18.20;78.40;;;;;;5016844;28;20548;-78
2022/07/08 03:27:49;;;;;;;8.33;3.87;;;18.20;78.50;;;;;;5014382;28;20208;-78
2022/07/08 03:30:15;;;;;;;11.63;4.40;;;18.20;78.30;;;;;;5019358;28;20770;-77
2022/07/08 03:32:41;;;;;;;4.63;3.73;;;18.10;78.70;;;;;;5021664;28;20191;-79
2022/07/08 03:35:07;;;;;;;5.53;3.90;;;18.10;79.10;;;;;;5018037;28;20238;-78
2022/07/08 03:37:32;;;;;;;9.87;4.20;;;18.10;78.80;;;;;;5016277;28;20217;-76
2022/07/08 03:41:19;;;;;;;5.60;4.30;;;18.10;78.60;;;;;;5012956;28;20517;-76
2022/07/08 03:42:44;;;;;;;6.87;4.07;;;18.10;78.30;;;;;;5012710;28;20733;-76
2022/07/08 03:45:09;;;;;;;7.33;4.30;;;18.00;79.20;;;;;;5017915;28;20582;-76
2022/07/08 03:47:35;;;;;;;9.47;4.10;;;18.00;79.20;;;;;;5016354;28;20750;-76
2022/07/08 03:50:01;;;;;;;8.00;4.63;;;18.10;79.40;;;;;;5020638;28;20236;-78
2022/07/08 03:52:27;;;;;;;8.60;4.30;;;18.10;79.90;;;;;;5015729;28;20827;-76
2022/07/08 03:54:52;;;;;;;9.93;3.70;;;18.00;80.30;;;;;;5014621;28;20212;-78
2022/07/08 03:57:18;;;;;;;12.07;4.60;;;18.00;80.50;;;;;;5019101;28;20212;-78
2022/07/08 03:59:44;;;;;;;6.50;4.50;;;18.00;80.70;;;;;;5016123;28;20196;-77
2022/07/08 04:02:09;;;;;;;6.17;4.40;;;18.00;81.00;;;;;;5022441;28;20208;-77
2022/07/08 04:04:35;;;;;;;7.80;4.93;;;18.00;80.90;;;;;;5000717;28;20319;-78
2022/07/08 04:07:00;;;;;;;6.57;4.00;;;17.90;81.00;;;;;;5015267;28;20742;-81
2022/07/08 04:09:27;;;;;;;5.20;4.20;;;17.90;81.20;;;;;;5020437;28;20219;-78
2022/07/08 04:11:53;;;;;;;5.67;4.23;;;17.90;81.30;;;;;;5017025;28;20203;-75
2022/07/08 04:14:18;;;;;;;14.07;5.90;;;17.90;81.30;;;;;;5015741;28;20519;-74
2022/07/08 04:16:44;;;;;;;7.50;4.73;;;18.00;81.20;;;;;;5015958;28;20468;-76
2022/07/08 04:19:10;;;;;;;7.77;4.77;;;17.90;81.00;;;;;;5014369;28;20652;-75
2022/07/08 04:21:36;;;;;;;4.70;4.00;;;17.90;81.00;;;;;;5013115;28;20264;-76
2022/07/08 04:24:01;;;;;;;7.70;4.30;;;18.00;81.00;;;;;;5017088;28;20197;-78
2022/07/08 04:26:31;;;;;;;6.93;3.90;;;17.90;80.90;;;;;;5014199;28;20209;-77
2022/07/08 04:28:58;;;;;;;8.43;3.90;;;17.90;81.60;;;;;;5015039;28;20275;-77
2022/07/08 04:31:23;;;;;;;10.03;4.30;;;18.00;80.80;;;;;;5014431;28;20436;-77
2022/07/08 04:33:49;;;;;;;5.93;3.70;;;18.00;80.60;;;;;;4996684;28;20447;-76
2022/07/08 04:36:15;;;;;;;4.73;3.93;;;18.00;80.60;;;;;;5013186;28;20200;-76
2022/07/08 04:38:41;;;;;;;7.07;5.93;;;18.00;80.20;;;;;;5016043;28;20189;-75
2022/07/08 04:41:06;;;;;;;9.83;4.30;;;18.00;80.20;;;;;;5015484;28;20179;-78
2022/07/08 04:43:32;;;;;;;12.07;3.90;;;18.00;80.10;;;;;;5006464;28;20427;-78
2022/07/08 04:45:58;;;;;;;4.53;3.73;;;18.00;80.60;;;;;;5015106;28;20279;-77
2022/07/08 04:48:24;;;;;;;9.73;3.87;;;18.00;80.60;;;;;;5017295;28;20176;-77
2022/07/08 04:50:49;;;;;;;9.00;3.77;;;18.00;80.60;;;;;;5009880;28;20180;-76
2022/07/08 04:53:15;;;;;;;8.03;4.07;;;18.00;80.90;;;;;;5015836;28;20439;-76
2022/07/08 04:55:41;;;;;;;15.00;3.53;;;18.00;81.40;;;;;;5013605;28;20200;-77
2022/07/08 04:58:06;;;;;;;5.53;3.20;;;18.00;80.30;;;;;;5012633;28;20208;-78
2022/07/08 05:00:34;;;;;;;6.23;3.57;;;18.00;80.10;;;;;;5014116;28;20205;-75
2022/07/08 05:03:00;;;;;;;4.07;3.43;;;18.00;80.20;;;;;;5013005;28;20450;-77
2022/07/08 05:05:27;;;;;;;14.20;3.50;;;18.00;80.20;;;;;;5012069;28;20470;-75
2022/07/08 05:07:53;;;;;;;5.87;3.63;;;17.90;80.70;;;;;;5015966;28;20902;-76
2022/07/08 05:10:23;;;;;;;12.10;4.47;;;17.90;81.10;;;;;;5010738;28;20519;-76
2022/07/08 05:12:49;;;;;;;6.73;4.00;;;17.90;81.40;;;;;;5009475;28;20470;-76
2022/07/08 05:15:15;;;;;;;7.47;4.00;;;18.00;80.90;;;;;;5011606;28;20827;-76
2022/07/08 05:17:41;;;;;;;7.00;3.57;;;18.00;81.00;;;;;;4997132;28;20467;-75
2022/07/08 05:20:11;;;;;;;10.40;3.80;;;18.00;81.50;;;;;;5013956;28;20436;-76
2022/07/08 05:22:37;;;;;;;6.23;4.27;;;18.00;82.20;;;;;;5012090;28;20192;-76
2022/07/08 05:25:04;;;;;;;11.30;4.67;;;18.00;82.50;;;;;;5013326;28;20558;-78
2022/07/08 05:27:30;;;;;;;7.00;4.40;;;18.00;82.50;;;;;;5015542;28;20458;-76
2022/07/08 05:29:56;;;;;;;9.00;4.00;;;18.00;81.90;;;;;;5019963;28;20617;-77
2022/07/08 05:32:21;;;;;;;5.97;3.80;;;18.00;81.70;;;;;;5015883;28;20231;-79
2022/07/08 05:34:47;;;;;;;4.20;3.47;;;17.90;82.20;;;;;;5010514;28;20447;-76
2022/07/08 05:37:13;;;;;;;12.40;6.37;;;17.90;82.90;;;;;;5016563;28;20219;-76
2022/07/08 05:39:40;;;;;;;7.27;3.77;;;18.00;82.70;;;;;;5011236;28;20203;-77
2022/07/08 05:42:07;;;;;;;11.17;6.90;;;18.00;82.20;;;;;;5015190;28;20608;-77
2022/07/08 05:44:33;;;;;;;8.20;4.20;;;18.00;82.60;;;;;;5014595;28;20455;-73
2022/07/08 05:46:59;;;;;;;11.27;4.30;;;18.00;82.80;;;;;;5012317;28;20581;-73
2022/07/08 05:49:24;;;;;;;7.07;3.90;;;18.00;83.30;;;;;;4997840;28;20181;-76
2022/07/08 05:51:50;;;;;;;4.80;3.57;;;18.10;82.60;;;;;;5011162;28;20211;-75
2022/07/08 05:54:15;;;;;;;8.37;3.80;;;18.10;82.30;;;;;;5013461;28;20256;-77
2022/07/08 05:56:41;;;;;;;8.33;4.90;;;18.10;81.90;;;;;;5015626;28;20205;-78
2022/07/08 05:59:06;;;;;;;12.20;4.20;;;18.00;83.00;;;;;;5011052;28;20625;-76
2022/07/08 06:01:32;;;;;;;9.40;3.90;;;18.00;83.20;;;;;;4999313;28;20189;-76
2022/07/08 06:03:58;;;;;;;9.00;4.10;;;18.00;83.00;;;;;;4992886;28;20192;-77
2022/07/08 06:06:23;;;;;;;7.97;4.60;;;18.10;83.00;;;;;;5009849;28;20292;-76
2022/07/08 06:08:49;;;;;;;5.67;3.80;;;18.10;82.60;;;;;;5015688;28;20188;-76
2022/07/08 06:11:15;;;;;;;6.77;4.53;;;18.20;82.90;;;;;;5016436;28;20185;-77
2022/07/08 06:13:40;;;;;;;7.60;3.97;;;18.20;83.00;;;;;;5010878;28;20663;-73
2022/07/08 06:16:06;;;;;;;14.07;5.83;;;18.20;82.90;;;;;;5015131;28;20188;-74
2022/07/08 06:18:34;;;;;;;5.70;4.17;;;18.20;82.80;;;;;;5013268;28;20180;-76
2022/07/08 06:21:00;;;;;;;7.17;4.47;;;18.20;83.20;;;;;;5007947;28;20430;-76
2022/07/08 06:23:26;;;;;;;7.80;3.27;;;18.30;82.50;;;;;;5016001;28;20514;-76
2022/07/08 06:25:51;;;;;;;5.60;4.03;;;18.30;82.40;;;;;;5011772;28;20258;-74
2022/07/08 06:28:18;;;;;;;9.57;6.50;;;18.30;82.60;;;;;;5020231;28;20232;-75
2022/07/08 06:30:43;;;;;;;6.43;3.60;;;18.30;82.20;;;;;;5016691;28;20196;-75
2022/07/08 06:33:09;;;;;;;6.83;4.13;;;18.40;81.90;;;;;;5020523;28;20699;-74
2022/07/08 06:35:35;;;;;;;9.77;3.80;;;18.50;81.60;;;;;;5004386;28;20531;-75
2022/07/08 06:38:01;;;;;;;8.00;3.33;;;18.50;81.50;;;;;;5017878;28;20287;-75
2022/07/08 06:40:27;;;;;;;9.83;3.97;;;18.50;81.10;;;;;;5018473;28;20392;-76
2022/07/08 06:42:53;;;;;;;5.13;3.60;;;18.60;80.50;;;;;;5022127;28;20191;-79
2022/07/08 06:45:19;;;;;;;5.27;3.10;;;18.60;80.20;;;;;;5007222;28;20463;-76
2022/07/08 06:47:45;;;;;;;10.40;3.37;;;18.60;80.40;;;;;;5020305;28;20287;-78
2022/07/08 06:50:11;;;;;;;4.70;2.90;;;18.50;80.90;;;;;;5016967;28;20514;-74
2022/07/08 06:52:37;;;;;;;10.23;3.90;;;18.60;80.50;;;;;;5019809;28;20451;-73
2022/07/08 06:55:03;;;;;;;6.87;3.00;;;18.70;79.80;;;;;;5014712;28;20930;-73
2022/07/08 06:57:29;;;;;;;4.40;3.00;;;18.70;79.80;;;;;;5018452;28;20451;-74
2022/07/08 06:59:55;;;;;;;6.07;3.00;;;18.70;79.90;;;;;;5009462;28;20950;-74
2022/07/08 07:02:20;;;;;;;8.37;4.27;;;18.80;79.00;;;;;;5018371;28;20242;-76
2022/07/08 07:08:09;;;;;;;6.30;3.50;;;18.80;79.20;;;;;;5043685;22;20748;-68
2022/07/08 07:10:36;;;;;;;7.00;3.10;;;18.90;78.60;;;;;;5018713;28;20443;-67
2022/07/08 07:13:01;;;;;;;7.60;4.67;;;19.00;77.90;;;;;;5019550;28;20442;-66
2022/07/08 07:15:27;;;;;;;6.17;4.20;;;19.10;77.80;;;;;;5001825;28;20456;-67
2022/07/08 07:17:52;;;;;;;8.53;6.13;;;19.00;78.00;;;;;;4999963;28;20268;-67
2022/07/08 07:20:18;;;;;;;11.20;4.83;;;19.10;78.00;;;;;;5001842;28;20186;-67
2022/07/08 07:22:46;;;;;;;8.77;4.00;;;19.20;76.90;;;;;;5003934;28;20185;-66
2022/07/08 07:25:15;;;;;;;8.80;3.93;;;19.10;77.10;;;;;;4998774;28;20209;-65
2022/07/08 07:27:41;;;;;;;7.33;3.43;;;19.20;76.90;;;;;;4999533;28;20525;-66
2022/07/08 07:30:07;;;;;;;5.10;3.47;;;19.30;76.50;;;;;;5005427;28;20430;-68
2022/07/08 07:32:33;;;;;;;4.90;3.53;;;19.40;75.40;;;;;;4999030;28;20979;-67
2022/07/08 07:34:59;;;;;;;8.30;3.97;;;19.40;73.90;;;;;;4999455;28;20594;-66
2022/07/08 07:37:25;;;;;;;4.60;2.70;;;19.50;73.90;;;;;;4994274;28;20209;-67
2022/07/08 07:39:50;;;;;;;7.63;4.10;;;19.50;73.40;;;;;;5001474;28;21190;-68
2022/07/08 07:42:16;;;;;;;5.37;3.60;;;19.60;74.30;;;;;;5001047;28;20652;-67
2022/07/08 07:44:41;;;;;;;3.97;2.77;;;19.60;75.30;;;;;;4999398;28;20208;-67
2022/07/08 07:47:07;;;;;;;4.40;4.00;;;19.60;75.10;;;;;;5002245;28;21164;-67
2022/07/08 07:49:33;;;;;;;8.57;4.80;;;19.80;74.30;;;;;;5000476;28;20178;-66
2022/07/08 07:51:58;;;;;;;5.50;3.10;;;19.90;74.30;;;;;;4999830;28;20747;-67
2022/07/08 07:54:24;;;;;;;3.53;2.60;;;19.90;73.10;;;;;;4998310;28;20221;-67
2022/07/08 07:56:49;;;;;;;4.67;2.60;;;20.00;71.30;;;;;;5000095;28;20208;-68
2022/07/08 07:59:15;;;;;;;5.80;3.00;;;20.00;70.00;;;;;;5001564;28;20208;-68
2022/07/08 08:01:40;;;;;;;9.83;3.73;;;20.10;69.70;;;;;;4980300;28;20202;-68
2022/07/08 08:04:06;;;;;;;5.20;3.03;;;20.20;69.90;;;;;;4999623;28;20639;-67
2022/07/08 08:06:31;;;;;;;5.63;2.67;;;20.20;69.60;;;;;;5001124;28;20190;-67
2022/07/08 08:08:57;;;;;;;3.97;2.80;;;20.30;69.70;;;;;;5001516;28;20193;-67
2022/07/08 08:11:23;;;;;;;4.40;2.60;;;20.40;67.70;;;;;;5003104;28;20563;-67
2022/07/08 08:13:49;;;;;;;5.20;3.13;;;20.50;67.80;;;;;;5001889;28;20452;-66
2022/07/08 08:16:14;;;;;;;4.80;2.90;;;20.60;67.70;;;;;;4996004;28;20205;-67
2022/07/08 08:18:40;;;;;;;5.43;2.83;;;20.60;67.30;;;;;;4994337;28;20190;-64
2022/07/08 08:21:06;;;;;;;4.43;3.30;;;20.70;67.70;;;;;;4995192;28;20763;-65
2022/07/08 08:23:31;;;;;;;4.60;2.97;;;20.80;67.50;;;;;;4995091;28;20188;-65
2022/07/08 08:25:57;;;;;;;4.00;2.57;;;20.90;67.70;;;;;;4997526;28;20195;-65
2022/07/08 08:28:24;;;;;;;5.17;3.47;;;21.00;67.50;;;;;;4995392;28;20994;-65
2022/07/08 08:30:50;;;;;;;4.77;3.60;;;21.10;66.60;;;;;;4999626;28;20184;-67
2022/07/08 08:33:15;;;;;;;7.57;3.00;;;21.20;65.70;;;;;;5000079;28;20977;-67
2022/07/08 08:35:41;;;;;;;8.00;2.80;;;21.20;65.50;;;;;;4999261;28;20213;-67
2022/07/08 08:38:07;;;;;;;6.87;2.80;;;21.30;66.10;;;;;;5003454;28;20212;-66
2022/07/08 08:40:33;;;;;;;5.80;2.60;;;21.40;64.90;;;;;;4998733;28;20178;-67
2022/07/08 08:42:59;;;;;;;7.50;2.83;;;21.50;65.20;;;;;;4983874;28;20532;-65
2022/07/08 08:45:26;;;;;;;4.30;2.60;;;21.50;64.20;;;;;;4998502;28;20470;-67
2022/07/08 08:47:53;;;;;;;5.20;2.80;;;21.50;63.00;;;;;;5001772;28;20665;-67
2022/07/08 08:53:08;;;;;;;5.67;2.90;;;21.50;65.30;;;;;;5002962;28;20479;-67
2022/07/08 08:55:34;;;;;;;4.37;2.70;;;21.60;64.10;;;;;;5003576;28;21281;-66
2022/07/08 08:58:02;;;;;;;8.60;2.57;;;21.50;63.70;;;;;;5004244;28;20428;-66
2022/07/08 09:00:29;;;;;;;4.73;3.03;;;21.60;64.50;;;;;;4999621;28;20184;-65
2022/07/08 09:02:55;;;;;;;7.33;3.00;;;21.50;64.90;;;;;;4995290;28;20432;-68
2022/07/08 09:05:23;;;;;;;5.80;3.60;;;21.50;63.60;;;;;;5002247;28;20511;-67
2022/07/08 09:07:49;;;;;;;10.17;3.60;;;21.40;62.60;;;;;;4998113;28;20443;-66
2022/07/08 09:10:16;;;;;;;5.40;3.30;;;21.40;61.90;;;;;;5005523;28;20448;-66
2022/07/08 09:13:03;;;;;;;4.73;2.87;;;21.10;62.50;;;;;;5002106;28;20823;-67
2022/07/08 09:15:37;;;;;;;5.07;3.03;;;21.20;61.80;;;;;;4998484;28;20896;-67
2022/07/08 09:18:05;;;;;;;3.53;2.40;;;21.20;62.80;;;;;;4998257;28;20414;-65
2022/07/08 09:20:41;;;;;;;7.40;3.07;;;21.20;64.40;;;;;;5001017;28;20424;-66
2022/07/08 09:23:16;;;;;;;6.87;3.17;;;21.20;62.80;;;;;;4994758;28;20612;-65
2022/07/08 09:25:42;;;;;;;8.17;3.20;;;21.10;62.50;;;;;;4998622;28;20463;-66
2022/07/08 09:28:08;;;;;;;6.47;3.20;;;21.10;61.90;;;;;;4997271;28;20450;-64
2022/07/08 09:30:34;;;;;;;6.60;3.50;;;21.00;61.70;;;;;;4995121;28;20466;-66
2022/07/08 09:33:01;;;;;;;6.57;3.67;;;20.90;61.50;;;;;;5000290;28;20470;-65
2022/07/08 09:35:35;;;;;;;5.70;2.90;;;20.90;62.60;;;;;;5000096;28;20735;-65
2022/07/08 09:38:02;;;;;;;4.77;3.07;;;20.90;62.10;;;;;;5000008;28;20428;-66
2022/07/08 09:40:28;;;;;;;4.53;3.23;;;21.00;62.30;;;;;;5001401;28;20894;-66
2022/07/08 09:42:54;;;;;;;6.27;4.20;;;21.00;61.90;;;;;;4998095;28;21012;-66
2022/07/08 09:45:27;;;;;;;5.87;3.50;;;21.10;62.40;;;;;;4997397;28;20220;-66
2022/07/08 09:48:01;;;;;;;3.80;3.07;;;21.10;63.40;;;;;;4993871;28;20174;-65
2022/07/08 09:50:53;;;;;;;5.63;3.27;;;21.20;63.80;;;;;;4998597;28;20486;-66
2022/07/08 09:53:25;;;;;;;6.60;4.87;;;21.30;64.40;;;;;;4993695;28;20447;-65
2022/07/08 09:55:52;;;;;;;5.07;3.57;;;21.30;63.90;;;;;;4999316;28;20741;-65
2022/07/08 09:58:20;;;;;;;7.37;5.10;;;21.40;64.80;;;;;;5003809;28;20473;-65
2022/07/08 10:00:47;;;;;;;7.37;5.27;;;21.40;64.20;;;;;;4998959;28;20439;-66
2022/07/08 10:03:13;;;;;;;6.67;3.60;;;21.40;64.80;;;;;;5004697;28;20432;-65
2022/07/08 10:05:40;;;;;;;5.60;3.50;;;21.50;63.60;;;;;;5004387;28;20944;-67
2022/07/08 10:08:08;;;;;;;6.33;2.90;;;21.60;64.10;;;;;;5001852;28;20481;-65
2022/07/08 10:10:35;;;;;;;4.10;3.00;;;21.60;62.80;;;;;;4999142;28;20470;-66
2022/07/08 10:13:01;;;;;;;3.90;3.10;;;21.80;62.20;;;;;;4998969;28;20483;-66
2022/07/08 10:15:29;;;;;;;5.77;3.30;;;21.70;61.70;;;;;;4997560;28;20463;-66
2022/07/08 10:17:59;;;;;;;5.60;3.20;;;21.80;62.00;;;;;;4999025;28;20486;-66
2022/07/08 10:20:31;;;;;;;5.20;3.33;;;21.80;62.00;;;;;;4974482;28;20499;-67
2022/07/08 10:22:59;;;;;;;5.87;2.80;;;21.80;61.30;;;;;;4999378;28;20418;-67
2022/07/08 10:25:27;;;;;;;4.30;2.87;;;21.80;62.20;;;;;;4996975;28;20502;-66
2022/07/08 10:27:53;;;;;;;4.10;3.33;;;21.70;62.90;;;;;;4996692;28;20443;-65
2022/07/08 10:30:20;;;;;;;4.67;3.03;;;21.50;62.70;;;;;;4996038;28;20435;-66
2022/07/08 10:32:47;;;;;;;5.77;2.63;;;21.40;63.00;;;;;;4996112;28;20504;-66
2022/07/08 10:35:21;;;;;;;4.70;3.10;;;21.40;63.90;;;;;;5000415;28;20460;-66
2022/07/08 10:37:56;;;;;;;4.67;3.27;;;21.50;63.50;;;;;;4999195;28;20482;-66
2022/07/08 10:40:53;;;;;;;5.10;3.07;;;21.40;63.10;;;;;;4993499;28;20463;-66
2022/07/08 10:43:18;;;;;;;6.10;3.23;;;21.40;62.60;;;;;;4985135;28;20447;-66
2022/07/08 10:46:15;;;;;;;7.13;2.90;;;21.40;62.90;;;;;;4999893;28;20456;-67
2022/07/08 10:48:40;;;;;;;4.13;2.73;;;21.50;62.30;;;;;;4997514;28;20219;-67
2022/07/08 10:51:29;;;;;;;5.27;2.80;;;21.50;62.90;;;;;;4994698;28;20798;-67
2022/07/08 10:53:59;;;;;;;4.87;3.13;;;21.70;62.80;;;;;;5003658;28;20619;-66
2022/07/08 10:56:49;;;;;;;3.97;3.00;;;21.70;61.20;;;;;;4980115;28;20472;-66
2022/07/08 10:59:26;;;;;;;5.90;3.13;;;21.70;60.90;;;;;;4994132;28;20447;-67
2022/07/08 11:01:51;;;;;;;3.93;3.43;;;21.70;61.10;;;;;;4998168;28;20599;-67
2022/07/08 11:04:21;;;;;;;8.80;3.60;;;21.70;61.20;;;;;;4997517;28;20980;-67
2022/07/08 11:06:47;;;;;;;3.97;2.63;;;21.70;61.50;;;;;;4993189;28;20193;-68
2022/07/08 11:09:18;;;;;;;3.90;2.97;;;21.60;61.90;;;;;;4995183;28;20494;-67
2022/07/08 11:11:45;;;;;;;6.53;3.27;;;21.60;62.70;;;;;;5001220;28;20205;-68
2022/07/08 11:14:13;;;;;;;5.63;3.60;;;21.70;62.50;;;;;;4999507;28;20455;-67
2022/07/08 11:16:39;;;;;;;8.23;3.10;;;21.70;62.40;;;;;;5003758;28;20450;-67
2022/07/08 11:19:06;;;;;;;7.03;3.20;;;21.70;62.30;;;;;;5004922;28;20474;-68
2022/07/08 11:21:32;;;;;;;7.40;3.13;;;21.80;61.90;;;;;;5000736;28;21250;-67
2022/07/08 11:23:58;;;;;;;5.73;3.50;;;21.80;61.50;;;;;;5002156;28;20451;-68
2022/07/08 11:26:23;;;;;;;3.90;2.53;;;22.00;60.80;;;;;;5005349;28;20520;-68
2022/07/08 11:28:49;;;;;;;4.80;4.40;;;22.10;61.20;;;;;;5001125;28;20431;-67
2022/07/08 11:31:25;;;;;;;10.77;3.17;;;22.30;61.00;;;;;;4996124;28;20268;-66
2022/07/08 11:33:51;;;;;;;6.20;2.90;;;22.40;60.70;;;;;;5000235;28;20197;-67
2022/07/08 11:36:19;;;;;;;8.87;3.00;;;22.50;60.80;;;;;;4998565;28;20472;-68
2022/07/08 11:38:48;;;;;;;3.33;2.93;;;22.60;60.80;;;;;;5001554;28;20196;-68
2022/07/08 11:41:14;;;;;;;5.60;3.00;;;22.80;60.90;;;;;;5001662;28;20463;-68
2022/07/08 11:43:43;;;;;;;3.27;2.40;;;23.00;61.20;;;;;;4997996;28;20973;-69
2022/07/08 11:46:20;;;;;;;5.57;3.00;;;23.20;59.40;;;;;;5001249;28;20803;-67
2022/07/08 11:48:46;;;;;;;4.13;3.73;;;23.40;59.80;;;;;;4999853;28;20494;-66
2022/07/08 11:51:13;;;;;;;4.50;2.50;;;23.60;59.20;;;;;;4995758;28;20808;-67
2022/07/08 11:53:39;;;;;;;3.93;3.10;;;23.90;58.20;;;;;;4994353;28;20443;-66
2022/07/08 11:56:05;;;;;;;4.90;2.67;;;24.20;57.40;;;;;;4995332;28;20455;-66
2022/07/08 11:58:31;;;;;;;5.23;2.70;;;24.20;56.50;;;;;;4997977;28;20185;-67
2022/07/08 12:00:56;;;;;;;3.70;2.87;;;24.40;56.00;;;;;;4997167;28;21071;-67
2022/07/08 12:03:22;;;;;;;4.20;2.80;;;24.50;55.70;;;;;;4996170;28;20197;-66
2022/07/08 12:05:47;;;;;;;4.90;2.60;;;24.70;54.80;;;;;;4999172;28;20174;-66
2022/07/08 12:08:13;;;;;;;3.23;2.80;;;25.50;55.20;;;;;;4993844;28;20280;-67
2022/07/08 12:10:39;;;;;;;5.43;2.70;;;26.70;54.10;;;;;;4998158;28;20686;-66
2022/07/08 12:13:05;;;;;;;4.90;3.27;;;28.70;52.20;;;;;;5003366;28;20535;-66
2022/07/08 12:15:35;;;;;;;5.23;2.67;;;30.70;49.50;;;;;;5000373;28;20263;-66
2022/07/08 12:18:01;;;;;;;5.17;2.83;;;32.80;47.30;;;;;;5002347;28;20185;-64
2022/07/08 12:20:32;;;;;;;4.07;3.20;;;34.50;44.90;;;;;;5001871;28;20451;-66
2022/07/08 12:22:58;;;;;;;5.73;2.50;;;36.00;43.00;;;;;;4996114;28;20843;-66
2022/07/08 12:25:24;;;;;;;4.77;3.20;;;37.10;40.70;;;;;;5003217;28;20459;-66
2022/07/08 12:28:03;;;;;;;5.23;3.30;;;37.80;38.20;;;;;;4997818;28;20675;-68
2022/07/08 12:30:30;;;;;;;6.77;3.23;;;38.10;37.60;;;;;;5006074;28;20643;-65
2022/07/08 12:33:04;;;;;;;5.00;3.97;;;38.80;36.20;;;;;;5006740;28;20984;-65
2022/07/08 12:35:33;;;;;;;4.73;3.10;;;39.20;35.30;;;;;;5001254;28;20493;-67
2022/07/08 12:38:10;;;;;;;4.60;3.50;;;39.70;34.00;;;;;;4999176;28;20403;-66
2022/07/08 12:40:38;;;;;;;4.47;3.00;;;39.60;33.80;;;;;;5000668;28;21182;-65
2022/07/08 12:43:11;;;;;;;4.30;2.70;;;39.30;33.60;;;;;;5001070;28;20407;-66
2022/07/08 12:45:37;;;;;;;4.43;2.70;;;39.50;33.60;;;;;;4997917;28;20467;-67
2022/07/08 12:48:03;;;;;;;4.70;2.13;;;39.40;32.40;;;;;;5000433;28;20432;-66
2022/07/08 12:50:31;;;;;;;3.57;2.20;;;39.00;32.40;;;;;;5003293;28;20853;-67